Time;durP1;ratioP1;P1;durP2;ratioP2;P2;SDS_P1;SDS_P2;PMS_P1;PMS_P2;Temp;Humidity;BMP_temperature;BMP_pressure;BME280_temperature;BME280_humidity;BME280_pressure;Samples;Min_cycle;Max_cycle;Signal;HPM_P1;HPM_P2
2022/08/20 00:00:36;;;;;;;6.28;3.10;;;19.30;99.90;;;;;;5033926;28;20206;-80
2022/08/20 00:03:10;;;;;;;5.05;2.70;;;19.20;99.90;;;;;;5034846;28;20286;-78
2022/08/20 00:05:43;;;;;;;6.50;2.67;;;19.20;99.90;;;;;;5035038;28;20286;-79
2022/08/20 00:08:10;;;;;;;6.28;2.75;;;19.20;99.90;;;;;;5045355;28;20300;-79
2022/08/20 00:10:39;;;;;;;5.75;2.20;;;19.20;99.90;;;;;;5054529;28;20205;-79
2022/08/20 00:13:09;;;;;;;6.15;2.47;;;19.20;99.90;;;;;;5055147;28;20190;-78
2022/08/20 00:15:38;;;;;;;5.22;2.53;;;19.20;99.90;;;;;;5053726;28;20218;-80
2022/08/20 00:18:06;;;;;;;6.07;2.83;;;19.20;99.90;;;;;;5054971;28;20697;-78
2022/08/20 00:20:36;;;;;;;4.18;2.25;;;19.20;99.90;;;;;;5054755;28;20282;-79
2022/08/20 00:23:06;;;;;;;5.40;2.53;;;19.20;99.90;;;;;;5053244;28;20475;-79
2022/08/20 00:25:33;;;;;;;6.65;2.70;;;19.20;99.90;;;;;;5048842;28;20818;-79
2022/08/20 00:28:02;;;;;;;3.10;2.20;;;19.20;99.90;;;;;;5034840;28;20289;-80
2022/08/20 00:30:30;;;;;;;4.93;2.45;;;19.20;99.90;;;;;;5033756;28;20278;-79
2022/08/20 00:33:00;;;;;;;4.35;2.53;;;19.20;99.90;;;;;;5034551;28;20206;-79
2022/08/20 00:35:29;;;;;;;4.07;2.67;;;19.10;99.90;;;;;;5055112;28;20242;-78
2022/08/20 00:37:56;;;;;;;3.17;2.58;;;19.10;99.90;;;;;;5057420;28;20285;-79
2022/08/20 00:40:35;;;;;;;4.40;2.13;;;19.10;99.90;;;;;;5057008;28;20261;-78
2022/08/20 00:43:06;;;;;;;4.07;2.50;;;19.00;99.90;;;;;;5054406;28;20285;-79
2022/08/20 00:45:35;;;;;;;3.22;2.15;;;19.00;99.90;;;;;;5054223;28;20201;-78
2022/08/20 00:48:02;;;;;;;4.00;2.42;;;19.00;99.90;;;;;;5054337;28;20221;-79
2022/08/20 00:50:34;;;;;;;4.55;2.70;;;19.00;99.90;;;;;;5053291;28;20198;-79
2022/08/20 00:53:03;;;;;;;5.13;2.50;;;18.90;99.90;;;;;;5054405;28;20601;-78
2022/08/20 00:55:33;;;;;;;6.55;2.80;;;18.90;99.90;;;;;;5054371;28;20224;-79
2022/08/20 00:58:04;;;;;;;3.33;2.00;;;18.90;99.90;;;;;;5053816;28;20208;-79
2022/08/20 01:00:37;;;;;;;2.22;1.92;;;18.90;99.90;;;;;;5035428;28;20206;-80
2022/08/20 01:03:08;;;;;;;4.72;2.13;;;18.80;99.90;;;;;;5043564;28;20289;-79
2022/08/20 01:05:36;;;;;;;4.55;2.58;;;18.80;99.90;;;;;;5053421;28;20186;-80
2022/08/20 01:08:04;;;;;;;5.28;2.40;;;18.70;99.90;;;;;;5038810;28;20547;-79
2022/08/20 01:10:36;;;;;;;4.88;2.10;;;18.70;99.90;;;;;;5034461;28;20194;-78
2022/08/20 01:13:09;;;;;;;3.92;2.40;;;18.60;99.90;;;;;;5034451;28;20197;-78
2022/08/20 01:15:38;;;;;;;5.20;2.08;;;18.60;99.90;;;;;;5033840;28;20227;-78
2022/08/20 01:18:09;;;;;;;3.45;2.20;;;18.50;99.90;;;;;;5034164;28;20497;-78
2022/08/20 01:20:41;;;;;;;3.75;2.13;;;18.50;99.90;;;;;;5037690;28;20515;-80
2022/08/20 01:23:29;;;;;;;3.08;1.92;;;18.40;99.90;;;;;;5034292;28;20202;-80
2022/08/20 01:26:03;;;;;;;3.28;2.17;;;18.40;99.90;;;;;;5033517;28;20203;-79
2022/08/20 01:28:37;;;;;;;4.85;2.40;;;18.30;99.90;;;;;;5034252;28;20194;-79
2022/08/20 01:31:06;;;;;;;3.80;2.03;;;18.20;99.90;;;;;;5034684;28;20209;-79
2022/08/20 01:33:33;;;;;;;3.97;2.40;;;18.20;99.90;;;;;;5033066;28;20229;-79
2022/08/20 01:36:00;;;;;;;3.78;1.80;;;18.10;99.90;;;;;;5034321;28;20781;-79
2022/08/20 01:38:28;;;;;;;3.25;2.30;;;18.00;99.90;;;;;;5054097;28;20201;-79
2022/08/20 01:41:13;;;;;;;3.58;2.38;;;18.00;99.90;;;;;;5052991;28;20229;-80
2022/08/20 01:43:41;;;;;;;4.40;2.25;;;17.90;99.90;;;;;;5053622;28;20198;-80
2022/08/20 01:46:10;;;;;;;6.55;2.42;;;17.90;99.90;;;;;;5037648;28;20207;-80
2022/08/20 01:48:38;;;;;;;6.13;2.58;;;17.80;99.90;;;;;;5033884;28;20222;-79
2022/08/20 01:51:07;;;;;;;2.67;2.05;;;17.80;99.90;;;;;;5036618;28;20194;-80
2022/08/20 01:53:37;;;;;;;4.40;2.33;;;17.70;99.90;;;;;;5053281;28;20190;-80
2022/08/20 01:56:08;;;;;;;2.83;1.90;;;17.70;99.90;;;;;;5052927;28;20241;-80
2022/08/20 01:58:39;;;;;;;5.78;2.40;;;17.60;99.90;;;;;;5033443;28;20194;-79
2022/08/20 02:01:06;;;;;;;3.92;2.10;;;17.60;99.90;;;;;;5033138;28;20281;-81
2022/08/20 02:03:35;;;;;;;4.68;2.45;;;17.50;99.90;;;;;;5032802;28;20209;-81
2022/08/20 02:06:02;;;;;;;3.47;2.05;;;17.50;99.90;;;;;;5034878;28;20671;-81
2022/08/20 02:08:32;;;;;;;4.55;2.38;;;17.50;99.90;;;;;;5035182;28;20210;-80
2022/08/20 02:10:58;;;;;;;4.65;2.47;;;17.50;99.90;;;;;;5033109;28;20294;-81
2022/08/20 02:13:27;;;;;;;5.03;2.50;;;17.40;99.90;;;;;;5033472;28;20208;-80
2022/08/20 02:15:54;;;;;;;3.08;2.53;;;17.40;99.90;;;;;;5031977;28;20637;-80
2022/08/20 02:18:21;;;;;;;5.07;2.50;;;17.30;99.90;;;;;;5033057;28;20281;-81
2022/08/20 02:20:50;;;;;;;3.53;2.58;;;17.30;99.90;;;;;;5033405;28;20213;-81
2022/08/20 02:23:17;;;;;;;5.88;3.13;;;17.20;99.90;;;;;;5032179;28;20289;-80
2022/08/20 02:25:47;;;;;;;3.85;2.60;;;17.20;99.90;;;;;;5049114;28;20213;-81
2022/08/20 02:28:18;;;;;;;4.72;2.63;;;17.10;99.90;;;;;;5052179;28;20209;-80
2022/08/20 02:30:50;;;;;;;5.60;3.15;;;17.10;99.90;;;;;;5052628;28;20551;-81
2022/08/20 02:33:19;;;;;;;5.10;3.00;;;17.10;99.90;;;;;;5052083;28;20533;-80
2022/08/20 02:35:48;;;;;;;4.32;2.70;;;17.00;99.90;;;;;;5051247;28;20233;-81
2022/08/20 02:38:16;;;;;;;3.60;2.50;;;17.00;99.90;;;;;;5032811;28;20297;-80
2022/08/20 02:40:45;;;;;;;3.22;2.80;;;16.90;99.90;;;;;;5032583;28;20232;-82
2022/08/20 02:43:13;;;;;;;6.07;2.70;;;16.90;99.90;;;;;;5031587;28;20281;-80
2022/08/20 02:45:43;;;;;;;5.78;2.78;;;16.80;99.90;;;;;;5031618;28;20202;-79
2022/08/20 02:48:19;;;;;;;4.03;2.13;;;16.80;99.90;;;;;;5032312;28;20194;-80
2022/08/20 02:50:48;;;;;;;3.70;2.45;;;16.80;99.90;;;;;;5046772;28;20217;-80
2022/08/20 02:53:16;;;;;;;4.40;2.80;;;16.70;99.90;;;;;;5051665;28;20202;-81
2022/08/20 02:55:43;;;;;;;3.75;2.50;;;16.70;99.90;;;;;;5051893;28;20232;-80
2022/08/20 02:58:11;;;;;;;2.45;2.25;;;16.70;99.90;;;;;;5051873;28;20198;-80
2022/08/20 03:00:38;;;;;;;4.95;2.72;;;16.60;99.90;;;;;;5052129;28;20784;-81
2022/08/20 03:03:06;;;;;;;4.68;2.33;;;16.60;99.90;;;;;;5051694;28;20652;-80
2022/08/20 03:05:35;;;;;;;4.05;2.42;;;16.60;99.90;;;;;;5051778;28;20204;-80
2022/08/20 03:08:03;;;;;;;3.42;2.50;;;16.50;99.90;;;;;;5052059;28;20198;-80
2022/08/20 03:10:33;;;;;;;5.20;2.40;;;16.50;99.90;;;;;;5032388;28;20218;-80
2022/08/20 03:13:01;;;;;;;3.08;2.35;;;16.50;99.90;;;;;;5032523;28;20285;-80
2022/08/20 03:15:30;;;;;;;4.72;2.97;;;16.50;99.90;;;;;;5052146;28;20907;-81
2022/08/20 03:17:57;;;;;;;3.65;2.72;;;16.40;99.90;;;;;;5051656;28;20198;-81
2022/08/20 03:20:25;;;;;;;2.67;2.17;;;16.40;99.90;;;;;;5051771;28;20199;-79
2022/08/20 03:22:53;;;;;;;3.60;2.70;;;16.40;99.90;;;;;;5051226;28;20202;-80
2022/08/20 03:25:20;;;;;;;3.10;2.28;;;16.30;99.90;;;;;;5051449;28;20201;-80
2022/08/20 03:27:48;;;;;;;3.25;2.55;;;16.30;99.90;;;;;;5050717;28;20198;-80
2022/08/20 03:30:18;;;;;;;5.15;2.80;;;16.30;99.90;;;;;;5031762;28;20207;-80
2022/08/20 03:32:45;;;;;;;3.75;2.63;;;16.20;99.90;;;;;;5042089;28;20229;-80
2022/08/20 03:35:14;;;;;;;3.85;2.45;;;16.20;99.90;;;;;;5051521;28;20237;-80
2022/08/20 03:37:41;;;;;;;3.95;2.65;;;16.10;99.90;;;;;;5043504;28;20303;-80
2022/08/20 03:40:15;;;;;;;2.70;2.50;;;16.10;99.90;;;;;;5031175;28;20205;-80
2022/08/20 03:42:42;;;;;;;4.35;2.70;;;16.00;99.90;;;;;;5031884;28;20195;-81
2022/08/20 03:45:11;;;;;;;5.32;2.63;;;16.00;99.90;;;;;;5031760;28;20203;-80
2022/08/20 03:47:38;;;;;;;3.15;2.45;;;16.00;99.90;;;;;;5030946;28;20919;-80
2022/08/20 03:50:09;;;;;;;3.15;2.70;;;15.90;99.90;;;;;;5033890;28;20211;-80
2022/08/20 03:52:36;;;;;;;3.20;2.58;;;15.90;99.90;;;;;;5050774;28;20234;-80
2022/08/20 03:55:04;;;;;;;3.72;2.80;;;15.80;99.90;;;;;;5051492;28;20194;-80
2022/08/20 03:57:32;;;;;;;5.68;2.88;;;15.80;99.90;;;;;;5052595;28;20521;-80
2022/08/20 03:59:59;;;;;;;5.22;2.83;;;15.80;99.90;;;;;;5035024;28;20217;-80
2022/08/20 04:02:27;;;;;;;4.80;2.80;;;15.80;99.90;;;;;;5050027;28;20208;-80
2022/08/20 04:04:54;;;;;;;5.13;2.55;;;15.80;99.90;;;;;;5054863;28;20622;-80
2022/08/20 04:07:25;;;;;;;3.80;2.90;;;15.70;99.90;;;;;;5054660;28;20205;-80
2022/08/20 04:09:53;;;;;;;3.78;2.40;;;15.70;99.90;;;;;;5054106;28;20227;-80
2022/08/20 04:12:20;;;;;;;4.95;2.78;;;15.70;99.90;;;;;;5054828;28;20206;-80
2022/08/20 04:14:48;;;;;;;4.60;2.80;;;15.70;99.90;;;;;;5034407;28;20214;-79
2022/08/20 04:17:18;;;;;;;5.13;3.17;;;15.60;99.90;;;;;;5035261;28;20215;-80
2022/08/20 04:19:46;;;;;;;3.47;2.50;;;15.60;99.90;;;;;;5034952;28;20194;-80
2022/08/20 04:22:14;;;;;;;3.83;2.50;;;15.50;99.90;;;;;;5034661;28;20511;-80
2022/08/20 04:24:41;;;;;;;4.95;3.03;;;15.50;99.90;;;;;;5034926;28;20225;-79
2022/08/20 04:27:09;;;;;;;3.90;2.60;;;15.50;99.90;;;;;;5036264;28;20280;-81
2022/08/20 04:29:36;;;;;;;4.57;2.55;;;15.40;99.90;;;;;;5034185;28;20201;-81
2022/08/20 04:32:05;;;;;;;2.63;2.38;;;15.40;99.90;;;;;;5034389;28;20183;-81
2022/08/20 04:34:33;;;;;;;4.10;2.50;;;15.40;99.90;;;;;;5040192;28;20253;-81
2022/08/20 04:37:00;;;;;;;3.00;2.58;;;15.40;99.90;;;;;;5054097;28;20217;-81
2022/08/20 04:39:27;;;;;;;3.47;2.63;;;15.40;99.90;;;;;;5054028;28;20230;-80
2022/08/20 04:41:54;;;;;;;5.72;2.72;;;15.30;99.90;;;;;;5053714;28;20205;-80
2022/08/20 04:44:21;;;;;;;4.68;2.70;;;15.30;99.90;;;;;;5037924;28;20276;-80
2022/08/20 04:46:48;;;;;;;3.45;2.40;;;15.30;99.90;;;;;;5033772;28;20198;-80
2022/08/20 04:49:17;;;;;;;3.90;2.53;;;15.20;99.90;;;;;;5033623;28;20214;-80
2022/08/20 04:51:43;;;;;;;2.72;2.13;;;15.20;99.90;;;;;;5034108;28;20285;-80
2022/08/20 04:54:12;;;;;;;4.80;2.85;;;15.20;99.90;;;;;;5034415;28;20206;-81
2022/08/20 04:56:39;;;;;;;4.22;2.40;;;15.20;99.90;;;;;;5033954;28;20226;-81
2022/08/20 04:59:07;;;;;;;5.03;2.65;;;15.20;99.90;;;;;;5034814;28;20289;-80
2022/08/20 05:01:33;;;;;;;3.17;2.60;;;15.20;99.90;;;;;;5033870;28;20206;-80
2022/08/20 05:04:00;;;;;;;3.38;2.55;;;15.10;99.90;;;;;;5033519;28;20420;-81
2022/08/20 05:06:31;;;;;;;3.95;2.90;;;15.10;99.90;;;;;;5033805;28;20198;-81
2022/08/20 05:09:00;;;;;;;3.85;2.78;;;15.10;99.90;;;;;;5033445;28;20226;-80
2022/08/20 05:11:29;;;;;;;4.43;2.75;;;15.10;99.90;;;;;;5052820;23;20239;-81
2022/08/20 05:13:55;;;;;;;4.13;2.55;;;15.10;99.90;;;;;;5063264;28;20202;-81
2022/08/20 05:16:23;;;;;;;4.85;2.83;;;15.10;99.90;;;;;;5053718;28;20213;-81
2022/08/20 05:18:50;;;;;;;4.00;2.50;;;15.10;99.90;;;;;;5052648;28;20194;-80
2022/08/20 05:21:18;;;;;;;4.55;3.10;;;15.10;99.90;;;;;;5053342;28;20285;-80
2022/08/20 05:23:46;;;;;;;5.32;3.05;;;15.10;99.90;;;;;;5053752;28;20210;-80
2022/08/20 05:26:14;;;;;;;5.47;3.20;;;15.10;99.90;;;;;;5053049;28;20189;-81
2022/08/20 05:28:44;;;;;;;4.30;3.10;;;15.10;99.90;;;;;;5053660;28;20259;-81
2022/08/20 05:31:10;;;;;;;3.58;3.10;;;15.10;99.90;;;;;;5061323;28;20205;-79
2022/08/20 05:33:38;;;;;;;4.55;3.03;;;15.10;99.90;;;;;;5072778;28;20201;-80
2022/08/20 05:36:07;;;;;;;5.38;3.13;;;15.10;99.90;;;;;;5052623;28;20208;-79
2022/08/20 05:38:35;;;;;;;4.90;3.22;;;15.20;99.90;;;;;;5052210;28;20240;-79
2022/08/20 05:41:04;;;;;;;5.40;3.05;;;15.20;99.90;;;;;;5052980;28;20295;-79
2022/08/20 05:43:32;;;;;;;5.00;3.00;;;15.20;99.90;;;;;;5045655;28;20211;-80
2022/08/20 05:46:00;;;;;;;4.10;2.85;;;15.20;99.90;;;;;;5032439;28;20198;-79
2022/08/20 05:48:27;;;;;;;5.35;2.90;;;15.20;99.90;;;;;;5032889;28;20237;-79
2022/08/20 05:50:54;;;;;;;3.72;2.78;;;15.20;99.90;;;;;;5033081;28;20603;-80
2022/08/20 05:53:22;;;;;;;4.95;2.97;;;15.30;99.90;;;;;;5032591;28;20591;-80
2022/08/20 05:55:50;;;;;;;3.70;2.63;;;15.40;99.90;;;;;;5033769;28;20214;-79
2022/08/20 05:58:21;;;;;;;3.97;2.95;;;15.40;99.90;;;;;;5033009;28;20649;-79
2022/08/20 06:00:49;;;;;;;3.08;2.50;;;15.40;99.90;;;;;;5052175;28;20190;-79
2022/08/20 06:06:01;;;;;;;5.20;2.95;;;15.50;99.90;;;;;;5032734;28;20201;-77
2022/08/20 06:08:28;;;;;;;4.03;2.83;;;15.50;99.90;;;;;;5032840;28;20194;-78
2022/08/20 06:10:56;;;;;;;4.35;3.20;;;15.60;99.90;;;;;;5035251;28;20214;-80
2022/08/20 06:13:25;;;;;;;5.50;3.17;;;15.60;99.90;;;;;;5052330;28;20313;-78
2022/08/20 06:15:52;;;;;;;3.95;3.10;;;15.70;99.90;;;;;;5052631;28;20232;-79
2022/08/20 06:18:19;;;;;;;4.10;2.97;;;15.80;99.90;;;;;;5052686;28;20709;-79
2022/08/20 06:20:46;;;;;;;4.10;3.05;;;15.80;99.90;;;;;;5051053;28;20929;-79
2022/08/20 06:23:13;;;;;;;4.78;3.00;;;15.80;99.90;;;;;;5052510;28;20582;-77
2022/08/20 06:25:40;;;;;;;3.83;2.85;;;15.90;99.90;;;;;;5051816;28;20209;-79
2022/08/20 06:28:07;;;;;;;8.48;3.83;;;15.90;99.90;;;;;;5050889;28;20597;-78
2022/08/20 06:30:36;;;;;;;6.95;3.38;;;16.00;99.90;;;;;;5052310;28;20645;-79
2022/08/20 06:33:03;;;;;;;6.40;3.97;;;16.10;99.90;;;;;;5045344;28;20207;-81
2022/08/20 06:35:30;;;;;;;5.22;3.40;;;16.20;99.90;;;;;;5031792;28;20222;-79
2022/08/20 06:37:59;;;;;;;9.77;3.80;;;16.20;99.90;;;;;;5031954;28;20218;-78
2022/08/20 06:40:28;;;;;;;5.78;3.30;;;16.30;99.90;;;;;;5031282;28;20329;-78
2022/08/20 06:42:56;;;;;;;6.03;3.67;;;16.40;99.90;;;;;;5056736;28;20209;-79
2022/08/20 06:45:31;;;;;;;10.00;4.03;;;16.50;99.90;;;;;;5056418;28;20296;-78
2022/08/20 06:48:01;;;;;;;5.97;3.70;;;16.60;99.90;;;;;;5056215;28;20251;-78
2022/08/20 06:50:31;;;;;;;8.45;3.40;;;16.70;99.90;;;;;;5069288;28;20205;-79
2022/08/20 06:52:58;;;;;;;8.85;3.72;;;16.70;99.90;;;;;;5071995;28;20200;-78
2022/08/20 06:55:25;;;;;;;6.28;3.10;;;16.80;99.90;;;;;;5071110;28;20200;-80
2022/08/20 06:58:00;;;;;;;7.10;3.38;;;17.00;99.90;;;;;;5031745;28;20250;-79
2022/08/20 07:00:29;;;;;;;10.23;3.03;;;17.20;99.90;;;;;;5032121;28;20197;-80
2022/08/20 07:02:58;;;;;;;8.63;3.15;;;17.50;99.90;;;;;;5040896;28;20287;-79
2022/08/20 07:05:26;;;;;;;8.73;2.90;;;17.70;99.90;;;;;;5046952;28;20217;-79
2022/08/20 07:07:53;;;;;;;6.50;2.38;;;18.00;99.90;;;;;;5045572;28;20276;-79
2022/08/20 07:10:23;;;;;;;5.50;2.45;;;18.20;99.90;;;;;;5047120;28;20761;-79
2022/08/20 07:12:50;;;;;;;5.53;2.00;;;18.40;99.90;;;;;;5039539;28;20233;-79
2022/08/20 07:15:18;;;;;;;6.63;2.10;;;18.80;99.90;;;;;;5039802;28;20210;-76
2022/08/20 07:17:50;;;;;;;6.22;2.42;;;19.10;99.90;;;;;;5047938;28;20230;-80
2022/08/20 07:20:17;;;;;;;9.15;2.42;;;19.50;99.90;;;;;;5045027;28;20231;-79
2022/08/20 07:22:46;;;;;;;6.07;2.42;;;19.90;99.90;;;;;;5036952;28;20202;-80
2022/08/20 07:25:15;;;;;;;8.93;2.60;;;20.30;99.90;;;;;;5050100;28;20234;-79
2022/08/20 07:27:44;;;;;;;6.43;2.33;;;20.60;99.90;;;;;;5047441;28;20198;-80
2022/08/20 07:32:59;;;;;;;6.00;2.13;;;21.30;99.90;;;;;;5033311;28;20273;-80
2022/08/20 07:35:26;;;;;;;5.43;2.08;;;21.60;99.90;;;;;;5040391;28;20256;-79
2022/08/20 07:37:54;;;;;;;6.43;2.15;;;21.90;99.90;;;;;;5054496;28;20226;-80
2022/08/20 07:40:23;;;;;;;6.32;2.42;;;22.20;99.90;;;;;;5055239;28;20527;-81
2022/08/20 07:42:50;;;;;;;5.45;2.50;;;22.40;99.90;;;;;;5055300;28;20306;-79
2022/08/20 07:45:18;;;;;;;5.10;2.10;;;22.70;99.90;;;;;;5054556;28;20209;-80
2022/08/20 07:47:46;;;;;;;5.30;2.05;;;22.90;99.90;;;;;;5054890;28;20538;-80
2022/08/20 07:50:16;;;;;;;7.03;2.20;;;23.20;99.90;;;;;;5055678;28;20193;-80
2022/08/20 07:52:44;;;;;;;8.15;2.13;;;23.40;99.90;;;;;;5054354;28;20212;-81
2022/08/20 07:55:15;;;;;;;6.25;2.38;;;23.70;99.90;;;;;;5055747;28;20232;-80
2022/08/20 07:57:42;;;;;;;9.25;2.40;;;23.80;99.90;;;;;;5054995;28;20655;-80
2022/08/20 08:00:11;;;;;;;5.80;2.17;;;23.90;99.90;;;;;;5054814;28;20497;-82
2022/08/20 08:02:38;;;;;;;4.75;2.35;;;23.80;99.90;;;;;;5040125;28;20203;-81
2022/08/20 08:05:07;;;;;;;6.28;2.20;;;23.90;99.90;;;;;;5034611;28;20198;-81
2022/08/20 08:07:34;;;;;;;8.10;2.50;;;24.10;99.90;;;;;;5034754;28;20208;-81
2022/08/20 08:10:02;;;;;;;5.10;1.65;;;24.10;99.90;;;;;;5063702;23;20819;-80
2022/08/20 08:12:36;;;;;;;4.38;1.98;;;24.30;99.90;;;;;;5074895;28;20197;-80
2022/08/20 08:15:05;;;;;;;8.18;3.05;;;24.50;99.90;;;;;;5074837;28;20189;-80
2022/08/20 08:17:33;;;;;;;7.68;2.45;;;24.80;99.90;;;;;;5074317;28;20247;-80
2022/08/20 08:20:00;;;;;;;8.68;2.47;;;24.90;99.90;;;;;;5073099;28;20850;-80
2022/08/20 08:22:28;;;;;;;8.15;1.77;;;24.90;99.90;;;;;;5074752;28;20197;-81
2022/08/20 08:24:56;;;;;;;6.15;2.47;;;24.90;99.90;;;;;;5064432;28;20210;-80
2022/08/20 08:27:23;;;;;;;4.68;2.10;;;24.80;99.90;;;;;;5053784;28;20293;-80
2022/08/20 08:29:52;;;;;;;5.53;1.92;;;24.80;99.90;;;;;;5054924;28;20202;-81
2022/08/20 08:32:18;;;;;;;6.03;2.47;;;25.00;99.90;;;;;;5054153;28;20288;-80
2022/08/20 08:34:46;;;;;;;4.47;2.00;;;25.10;99.90;;;;;;5053607;28;20218;-81
2022/08/20 08:37:13;;;;;;;6.68;2.00;;;25.30;99.90;;;;;;5054530;28;20575;-81
2022/08/20 08:39:40;;;;;;;4.82;2.17;;;25.50;99.90;;;;;;5053609;28;20216;-81
2022/08/20 08:42:24;;;;;;;4.43;1.90;;;25.50;99.90;;;;;;5053889;28;20208;-82
2022/08/20 08:44:53;;;;;;;5.40;2.08;;;25.60;99.90;;;;;;5053295;28;20202;-81
2022/08/20 08:47:28;;;;;;;5.75;1.95;;;25.50;99.90;;;;;;5054382;28;20198;-82
2022/08/20 08:49:56;;;;;;;5.13;2.35;;;25.60;99.90;;;;;;5053471;28;20197;-82
2022/08/20 08:52:26;;;;;;;5.75;2.00;;;25.70;99.90;;;;;;5054802;28;20217;-80
2022/08/20 08:54:55;;;;;;;4.22;1.90;;;25.80;99.90;;;;;;5053385;28;20205;-82
2022/08/20 08:57:22;;;;;;;8.05;2.45;;;25.80;99.90;;;;;;5054265;28;20190;-81
2022/08/20 08:59:58;;;;;;;4.93;2.13;;;26.00;99.90;;;;;;5054274;28;20202;-81
2022/08/20 09:02:28;;;;;;;5.35;2.15;;;26.00;99.90;;;;;;5053685;28;20201;-81
2022/08/20 09:04:57;;;;;;;8.60;2.47;;;26.00;99.90;;;;;;5053721;28;20194;-82
2022/08/20 09:07:27;;;;;;;7.35;2.20;;;25.80;99.90;;;;;;5053400;28;20217;-81
2022/08/20 09:09:54;;;;;;;5.00;2.08;;;25.60;99.90;;;;;;5053021;28;20525;-84
2022/08/20 09:12:23;;;;;;;5.53;1.77;;;25.30;99.90;;;;;;5053827;28;20212;-82
2022/08/20 09:14:52;;;;;;;8.75;2.38;;;25.00;99.90;;;;;;5053631;28;20204;-87
2022/08/20 09:17:21;;;;;;;7.18;2.00;;;25.00;99.90;;;;;;5073130;28;20209;-82
2022/08/20 09:19:49;;;;;;;5.22;1.95;;;24.90;99.90;;;;;;5061343;28;20297;-83
2022/08/20 09:22:19;;;;;;;8.43;2.47;;;24.90;99.90;;;;;;5054480;28;20202;-83
2022/08/20 09:24:46;;;;;;;9.65;2.40;;;25.00;99.90;;;;;;5053543;28;20206;-83
2022/08/20 09:27:13;;;;;;;6.47;2.33;;;25.00;99.90;;;;;;5053764;28;20197;-87
2022/08/20 09:29:40;;;;;;;9.25;2.97;;;25.00;99.90;;;;;;5055059;28;20289;-85
2022/08/20 09:32:10;;;;;;;8.18;2.50;;;25.00;99.90;;;;;;5054279;28;20201;-84
2022/08/20 09:34:40;;;;;;;7.32;2.25;;;25.00;99.90;;;;;;5053871;28;20252;-84
2022/08/20 09:37:07;;;;;;;8.55;1.98;;;25.10;99.90;;;;;;5053580;28;20241;-82
2022/08/20 09:39:34;;;;;;;8.05;2.47;;;25.20;99.90;;;;;;5053043;28;20235;-84
2022/08/20 09:42:07;;;;;;;7.32;2.22;;;25.30;99.90;;;;;;5054463;28;20206;-87
2022/08/20 09:44:35;;;;;;;10.98;2.90;;;25.50;99.90;;;;;;5053566;28;20226;-82
2022/08/20 09:47:02;;;;;;;7.50;2.17;;;25.50;99.90;;;;;;5054295;28;20198;-85
2022/08/20 09:49:29;;;;;;;7.43;2.20;;;25.30;99.90;;;;;;5053820;28;20198;-83
2022/08/20 09:51:59;;;;;;;6.47;2.35;;;25.50;99.90;;;;;;5053372;28;20664;-82
2022/08/20 09:54:28;;;;;;;6.85;2.08;;;25.70;99.90;;;;;;5053595;28;20503;-84
2022/08/20 09:56:56;;;;;;;8.15;2.28;;;25.70;99.90;;;;;;5053929;28;20236;-85
2022/08/20 09:59:22;;;;;;;4.53;2.05;;;25.80;99.90;;;;;;5053688;28;20230;-83
2022/08/20 10:01:49;;;;;;;6.20;1.70;;;25.90;99.90;;;;;;5053686;28;20201;-84
2022/08/20 10:04:16;;;;;;;6.00;1.90;;;26.00;99.90;;;;;;5053020;28;20202;-81
2022/08/20 10:06:43;;;;;;;5.57;1.98;;;25.80;99.90;;;;;;5052262;28;20212;-83
2022/08/20 10:09:11;;;;;;;8.02;2.30;;;25.80;99.90;;;;;;5052513;28;20225;-81
2022/08/20 10:11:38;;;;;;;7.15;2.10;;;25.90;99.90;;;;;;5052525;28;20559;-82
2022/08/20 10:14:06;;;;;;;6.43;2.20;;;25.80;99.90;;;;;;5052668;28;20198;-81
2022/08/20 10:16:33;;;;;;;5.88;2.58;;;25.80;99.90;;;;;;5088920;28;20604;-82
2022/08/20 10:18:59;;;;;;;9.57;2.13;;;25.80;99.90;;;;;;5073468;28;20218;-83
2022/08/20 10:21:26;;;;;;;6.85;2.30;;;25.70;99.90;;;;;;5051860;28;20208;-81
2022/08/20 10:23:53;;;;;;;8.05;2.30;;;25.70;99.90;;;;;;5052739;28;20653;-83
2022/08/20 10:26:21;;;;;;;4.97;2.03;;;25.50;99.90;;;;;;5052548;28;20208;-84
2022/08/20 10:28:49;;;;;;;4.47;1.88;;;25.40;99.90;;;;;;5052701;28;20221;-82
2022/08/20 10:31:15;;;;;;;7.38;2.50;;;25.50;99.90;;;;;;5053301;28;20552;-87
2022/08/20 10:33:42;;;;;;;7.63;2.58;;;25.70;99.90;;;;;;5053112;28;20233;-85
2022/08/20 10:36:12;;;;;;;7.00;2.28;;;25.60;99.90;;;;;;5053763;28;20496;-83
2022/08/20 10:38:39;;;;;;;6.43;1.88;;;25.60;99.90;;;;;;5052233;28;20559;-83
2022/08/20 10:41:06;;;;;;;5.00;1.92;;;25.80;99.90;;;;;;5052330;28;20388;-83
2022/08/20 10:43:34;;;;;;;5.15;2.03;;;26.10;99.90;;;;;;5053842;28;20584;-82
2022/08/20 10:46:02;;;;;;;7.28;2.45;;;26.40;99.90;;;;;;5052984;28;20198;-84
2022/08/20 10:48:29;;;;;;;6.35;1.83;;;26.70;99.90;;;;;;5067973;28;20591;-83
2022/08/20 10:50:56;;;;;;;7.00;2.40;;;26.90;99.90;;;;;;5072712;28;20200;-83
2022/08/20 10:53:22;;;;;;;9.07;2.20;;;26.90;99.90;;;;;;5072922;28;20194;-83
2022/08/20 10:55:49;;;;;;;6.55;2.30;;;26.70;99.90;;;;;;5064374;28;20594;-82
2022/08/20 10:58:16;;;;;;;5.68;2.28;;;26.30;99.90;;;;;;5052646;28;20221;-83
2022/08/20 11:00:46;;;;;;;9.05;2.55;;;26.30;99.90;;;;;;5053112;28;20521;-82
2022/08/20 11:03:13;;;;;;;6.75;2.20;;;26.50;99.90;;;;;;5051647;28;20489;-82
2022/08/20 11:05:39;;;;;;;7.55;2.70;;;26.80;99.90;;;;;;5052610;28;20247;-84
2022/08/20 11:08:06;;;;;;;6.28;2.17;;;27.10;99.90;;;;;;5054486;28;20208;-82
2022/08/20 11:10:35;;;;;;;10.68;1.95;;;27.30;99.90;;;;;;5067168;28;20233;-83
2022/08/20 11:13:03;;;;;;;5.68;2.30;;;27.50;99.90;;;;;;5076452;28;20590;-84
2022/08/20 11:15:38;;;;;;;5.70;1.92;;;27.70;99.90;;;;;;5066358;28;20208;-83
2022/08/20 11:18:07;;;;;;;7.10;1.92;;;27.90;99.90;;;;;;5056307;28;20248;-84
2022/08/20 11:20:34;;;;;;;6.13;1.80;;;28.10;99.90;;;;;;5056584;28;20493;-84
2022/08/20 11:23:01;;;;;;;5.85;1.95;;;28.20;99.90;;;;;;5073334;28;20293;-85
2022/08/20 11:25:28;;;;;;;5.53;1.83;;;28.30;99.90;;;;;;5061440;28;20204;-83
2022/08/20 11:27:56;;;;;;;4.93;1.80;;;28.50;99.90;;;;;;5056181;28;20488;-83
2022/08/20 11:30:26;;;;;;;5.78;1.83;;;28.40;99.90;;;;;;5055204;28;20633;-84
2022/08/20 11:32:53;;;;;;;6.53;1.98;;;28.50;99.90;;;;;;5067258;28;20212;-83
2022/08/20 11:35:22;;;;;;;8.10;2.13;;;28.60;99.90;;;;;;5064461;28;20526;-83
2022/08/20 11:37:50;;;;;;;7.72;1.70;;;28.70;99.90;;;;;;5055726;28;20259;-85
2022/08/20 11:40:17;;;;;;;5.70;1.73;;;28.70;99.90;;;;;;5055895;28;20261;-84
2022/08/20 11:42:44;;;;;;;10.13;1.88;;;28.70;99.90;;;;;;5055878;28;20503;-83
2022/08/20 11:45:11;;;;;;;5.60;1.95;;;28.50;99.90;;;;;;5055476;28;20722;-84
2022/08/20 11:47:38;;;;;;;5.40;1.85;;;28.30;99.90;;;;;;5055495;28;20616;-82
2022/08/20 11:50:07;;;;;;;5.20;1.45;;;28.50;99.90;;;;;;5055476;28;20551;-82
2022/08/20 11:52:37;;;;;;;6.93;2.08;;;28.50;99.90;;;;;;5054767;28;20236;-83
2022/08/20 11:55:05;;;;;;;6.80;2.15;;;28.50;99.90;;;;;;5055182;28;20194;-82
2022/08/20 11:57:35;;;;;;;5.65;1.95;;;28.60;99.90;;;;;;5055791;28;20232;-83
2022/08/20 12:00:05;;;;;;;6.95;2.30;;;28.50;99.90;;;;;;5054659;28;20233;-85
2022/08/20 12:02:31;;;;;;;9.60;2.70;;;28.30;99.90;;;;;;5056384;28;20202;-85
2022/08/20 12:04:58;;;;;;;6.10;2.22;;;28.10;99.90;;;;;;5055187;28;20231;-87
2022/08/20 12:07:25;;;;;;;5.93;2.17;;;28.10;99.90;;;;;;5055614;28;20605;-81
2022/08/20 12:09:54;;;;;;;6.63;2.38;;;28.20;99.90;;;;;;5065428;28;20237;-84
2022/08/20 12:12:23;;;;;;;7.25;2.10;;;28.30;99.90;;;;;;5075523;28;20625;-84
2022/08/20 12:14:50;;;;;;;5.90;1.67;;;28.30;99.90;;;;;;5082363;28;20205;-83
2022/08/20 12:17:20;;;;;;;10.20;2.78;;;28.40;99.90;;;;;;5064601;28;20205;-84
2022/08/20 12:19:47;;;;;;;6.82;2.38;;;28.30;99.90;;;;;;5074853;28;20243;-84
2022/08/20 12:22:14;;;;;;;8.48;2.67;;;28.40;99.90;;;;;;5069108;28;20494;-83
2022/08/20 12:24:41;;;;;;;7.68;2.08;;;28.40;99.90;;;;;;5067626;28;20288;-81
2022/08/20 12:27:11;;;;;;;6.20;2.22;;;28.50;99.90;;;;;;5075869;28;20282;-83
2022/08/20 12:29:42;;;;;;;9.45;2.42;;;28.50;99.90;;;;;;5083565;28;20205;-85
2022/08/20 12:32:09;;;;;;;9.35;2.60;;;28.50;99.90;;;;;;5080436;28;20227;-81
2022/08/20 12:34:37;;;;;;;7.47;1.90;;;28.50;99.90;;;;;;5080073;28;20234;-82
2022/08/20 12:37:07;;;;;;;6.57;2.15;;;28.50;99.90;;;;;;5075884;28;20782;-80
2022/08/20 12:39:35;;;;;;;8.60;2.70;;;28.30;99.90;;;;;;5078166;28;20239;-79
2022/08/20 12:42:02;;;;;;;8.02;2.33;;;28.20;99.90;;;;;;5083382;28;20213;-81
2022/08/20 12:44:31;;;;;;;11.00;2.33;;;28.30;99.90;;;;;;5072310;28;20216;-84
2022/08/20 12:47:07;;;;;;;7.15;2.38;;;28.20;99.90;;;;;;5078676;28;20204;-84
2022/08/20 12:49:34;;;;;;;7.38;1.85;;;28.20;99.90;;;;;;5070169;28;20181;-82
2022/08/20 12:52:02;;;;;;;8.32;2.28;;;28.30;99.90;;;;;;5074327;28;20228;-89
2022/08/20 12:54:29;;;;;;;5.25;2.15;;;28.20;99.90;;;;;;5075662;28;20288;-88
2022/08/20 12:56:56;;;;;;;6.82;2.33;;;28.20;99.90;;;;;;5075709;28;20280;-88